sensor_id;sensor_type;location;lat;lon;timestamp;pressure;altitude;pressure_sealevel;temperature;humidity
71915;BME280;60387;49.994;14.660;2022-07-23T00:00:59;97676.25;;;24.63;41.27
71915;BME280;60387;49.994;14.660;2022-07-23T00:03:32;97673.81;;;24.44;40.64
71915;BME280;60387;49.994;14.660;2022-07-23T00:06:06;97677.75;;;24.43;39.94
71915;BME280;60387;49.994;14.660;2022-07-23T00:08:39;97668.25;;;24.37;39.53
71915;BME280;60387;49.994;14.660;2022-07-23T00:11:12;97672.19;;;24.32;39.65
71915;BME280;60387;49.994;14.660;2022-07-23T00:13:46;97656.75;;;24.28;39.45
71915;BME280;60387;49.994;14.660;2022-07-23T00:16:19;97655.19;;;24.27;39.28
71915;BME280;60387;49.994;14.660;2022-07-23T00:18:52;97661.50;;;24.27;39.66
71915;BME280;60387;49.994;14.660;2022-07-23T00:21:26;97661.09;;;24.22;39.67
71915;BME280;60387;49.994;14.660;2022-07-23T00:23:59;97656.72;;;24.17;39.61
71915;BME280;60387;49.994;14.660;2022-07-23T00:26:32;97664.63;;;24.15;39.41
71915;BME280;60387;49.994;14.660;2022-07-23T00:29:05;97662.66;;;24.12;39.63
71915;BME280;60387;49.994;14.660;2022-07-23T00:31:39;97651.94;;;24.04;39.48
71915;BME280;60387;49.994;14.660;2022-07-23T00:34:12;97662.22;;;24.07;39.54
71915;BME280;60387;49.994;14.660;2022-07-23T00:36:45;97662.63;;;24.09;39.52
71915;BME280;60387;49.994;14.660;2022-07-23T00:39:19;97661.41;;;24.03;39.55
71915;BME280;60387;49.994;14.660;2022-07-23T00:41:53;97658.66;;;24.03;39.56
71915;BME280;60387;49.994;14.660;2022-07-23T00:44:27;97662.22;;;24.00;39.61
71915;BME280;60387;49.994;14.660;2022-07-23T00:47:01;97664.16;;;23.96;39.91
71915;BME280;60387;49.994;14.660;2022-07-23T00:49:34;97656.25;;;23.91;39.66
71915;BME280;60387;49.994;14.660;2022-07-23T00:52:07;97653.84;;;23.89;39.78
71915;BME280;60387;49.994;14.660;2022-07-23T00:54:41;97657.00;;;23.88;39.89
71915;BME280;60387;49.994;14.660;2022-07-23T00:57:14;97670.44;;;23.86;39.74
71915;BME280;60387;49.994;14.660;2022-07-23T00:59:48;97660.50;;;23.78;40.35
71915;BME280;60387;49.994;14.660;2022-07-23T01:02:21;97655.75;;;23.75;40.32
71915;BME280;60387;49.994;14.660;2022-07-23T01:04:55;97661.25;;;23.71;41.36
71915;BME280;60387;49.994;14.660;2022-07-23T01:07:28;97660.84;;;23.66;41.66
71915;BME280;60387;49.994;14.660;2022-07-23T01:10:02;97659.59;;;23.56;41.46
71915;BME280;60387;49.994;14.660;2022-07-23T01:12:36;97654.41;;;23.51;40.95
71915;BME280;60387;49.994;14.660;2022-07-23T01:15:09;97659.94;;;23.48;41.37
71915;BME280;60387;49.994;14.660;2022-07-23T01:17:42;97654.38;;;23.41;40.78
71915;BME280;60387;49.994;14.660;2022-07-23T01:20:16;97642.91;;;23.39;40.79
71915;BME280;60387;49.994;14.660;2022-07-23T01:22:50;97647.22;;;23.37;40.93
71915;BME280;60387;49.994;14.660;2022-07-23T01:25:24;97649.59;;;23.38;41.33
71915;BME280;60387;49.994;14.660;2022-07-23T01:27:57;97641.28;;;23.35;41.19
71915;BME280;60387;49.994;14.660;2022-07-23T01:30:31;97639.66;;;23.30;41.14
71915;BME280;60387;49.994;14.660;2022-07-23T01:33:04;97638.88;;;23.30;41.08
71915;BME280;60387;49.994;14.660;2022-07-23T01:35:37;97628.97;;;23.22;41.64
71915;BME280;60387;49.994;14.660;2022-07-23T01:38:10;97623.44;;;23.22;41.96
71915;BME280;60387;49.994;14.660;2022-07-23T01:40:44;97620.25;;;23.16;41.36
71915;BME280;60387;49.994;14.660;2022-07-23T01:43:17;97615.13;;;23.18;45.10
71915;BME280;60387;49.994;14.660;2022-07-23T01:45:50;97614.66;;;23.13;43.38
71915;BME280;60387;49.994;14.660;2022-07-23T01:48:23;97611.88;;;23.09;43.69
71915;BME280;60387;49.994;14.660;2022-07-23T01:50:57;97605.91;;;23.04;44.64
71915;BME280;60387;49.994;14.660;2022-07-23T01:53:30;97609.00;;;22.95;43.72
71915;BME280;60387;49.994;14.660;2022-07-23T01:56:04;97602.28;;;22.89;43.21
71915;BME280;60387;49.994;14.660;2022-07-23T01:58:37;97601.03;;;22.83;43.28
71915;BME280;60387;49.994;14.660;2022-07-23T02:01:11;97594.69;;;22.83;43.10
71915;BME280;60387;49.994;14.660;2022-07-23T02:03:44;97597.88;;;22.81;42.66
71915;BME280;60387;49.994;14.660;2022-07-23T02:06:17;97588.00;;;22.80;42.77
71915;BME280;60387;49.994;14.660;2022-07-23T02:08:50;97597.88;;;22.81;42.48
71915;BME280;60387;49.994;14.660;2022-07-23T02:11:24;97592.69;;;22.76;45.04
71915;BME280;60387;49.994;14.660;2022-07-23T02:13:57;97596.63;;;22.75;45.04
71915;BME280;60387;49.994;14.660;2022-07-23T02:16:30;97593.44;;;22.70;44.10
71915;BME280;60387;49.994;14.660;2022-07-23T02:19:04;97596.94;;;22.63;44.65
71915;BME280;60387;49.994;14.660;2022-07-23T02:21:37;97595.28;;;22.55;43.72
71915;BME280;60387;49.994;14.660;2022-07-23T02:24:10;97595.22;;;22.48;43.69
71915;BME280;60387;49.994;14.660;2022-07-23T02:26:44;97589.25;;;22.43;44.07
71915;BME280;60387;49.994;14.660;2022-07-23T02:29:17;97586.50;;;22.43;43.82
71915;BME280;60387;49.994;14.660;2022-07-23T02:31:50;97588.09;;;22.44;44.52
71915;BME280;60387;49.994;14.660;2022-07-23T02:34:24;97585.34;;;22.47;45.93
71915;BME280;60387;49.994;14.660;2022-07-23T02:36:57;97588.53;;;22.49;44.92
71915;BME280;60387;49.994;14.660;2022-07-23T02:39:30;97586.56;;;22.53;44.48
71915;BME280;60387;49.994;14.660;2022-07-23T02:42:04;97587.41;;;22.57;44.73
71915;BME280;60387;49.994;14.660;2022-07-23T02:44:37;97590.19;;;22.61;44.33
71915;BME280;60387;49.994;14.660;2022-07-23T02:47:10;97587.09;;;22.69;44.10
71915;BME280;60387;49.994;14.660;2022-07-23T02:49:43;97592.25;;;22.71;43.68
71915;BME280;60387;49.994;14.660;2022-07-23T02:52:17;97593.06;;;22.75;43.70
71915;BME280;60387;49.994;14.660;2022-07-23T02:54:50;97591.91;;;22.76;43.87
71915;BME280;60387;49.994;14.660;2022-07-23T02:57:23;97591.50;;;22.77;43.88
71915;BME280;60387;49.994;14.660;2022-07-23T02:59:56;97587.53;;;22.75;43.93
71915;BME280;60387;49.994;14.660;2022-07-23T03:02:30;97593.91;;;22.79;43.46
71915;BME280;60387;49.994;14.660;2022-07-23T03:05:03;97589.94;;;22.80;43.75
71915;BME280;60387;49.994;14.660;2022-07-23T03:07:37;97592.72;;;22.80;43.33
71915;BME280;60387;49.994;14.660;2022-07-23T03:10:10;97582.84;;;22.79;43.14
71915;BME280;60387;49.994;14.660;2022-07-23T03:12:43;97575.75;;;22.78;43.65
71915;BME280;60387;49.994;14.660;2022-07-23T03:15:17;97578.09;;;22.79;44.02
71915;BME280;60387;49.994;14.660;2022-07-23T03:17:50;97573.31;;;22.73;43.54
71915;BME280;60387;49.994;14.660;2022-07-23T03:20:23;97576.88;;;22.73;43.62
71915;BME280;60387;49.994;14.660;2022-07-23T03:22:57;97579.66;;;22.73;43.70
71915;BME280;60387;49.994;14.660;2022-07-23T03:25:30;97570.94;;;22.68;43.63
71915;BME280;60387;49.994;14.660;2022-07-23T03:28:03;97571.72;;;22.68;43.98
71915;BME280;60387;49.994;14.660;2022-07-23T03:30:37;97572.50;;;22.65;43.58
71915;BME280;60387;49.994;14.660;2022-07-23T03:33:10;97557.84;;;22.61;44.11
71915;BME280;60387;49.994;14.660;2022-07-23T03:35:44;97553.47;;;22.57;43.82
71915;BME280;60387;49.994;14.660;2022-07-23T03:38:18;97561.38;;;22.58;43.98
71915;BME280;60387;49.994;14.660;2022-07-23T03:40:51;97560.97;;;22.56;44.68
71915;BME280;60387;49.994;14.660;2022-07-23T03:43:24;97566.09;;;22.54;45.90
71915;BME280;60387;49.994;14.660;2022-07-23T03:45:57;97548.28;;;22.48;45.18
71915;BME280;60387;49.994;14.660;2022-07-23T03:48:31;97544.38;;;22.53;46.37
71915;BME280;60387;49.994;14.660;2022-07-23T03:51:04;97542.44;;;22.57;46.63
71915;BME280;60387;49.994;14.660;2022-07-23T03:53:37;97518.78;;;22.59;47.25
71915;BME280;60387;49.994;14.660;2022-07-23T03:56:10;97521.25;;;22.71;46.09
71915;BME280;60387;49.994;14.660;2022-07-23T03:58:44;97510.22;;;22.78;45.98
71915;BME280;60387;49.994;14.660;2022-07-23T04:01:17;97522.16;;;22.89;45.61
71915;BME280;60387;49.994;14.660;2022-07-23T04:03:50;97523.00;;;23.00;45.92
71915;BME280;60387;49.994;14.660;2022-07-23T04:06:24;97512.84;;;23.15;45.18
71915;BME280;60387;49.994;14.660;2022-07-23T04:08:57;97501.84;;;23.25;45.44
71915;BME280;60387;49.994;14.660;2022-07-23T04:11:30;97510.97;;;23.36;44.64
71915;BME280;60387;49.994;14.660;2022-07-23T04:14:04;97516.16;;;23.48;44.86
71915;BME280;60387;49.994;14.660;2022-07-23T04:16:37;97543.44;;;23.56;44.78
71915;BME280;60387;49.994;14.660;2022-07-23T04:19:10;97552.56;;;23.67;44.56
71915;BME280;60387;49.994;14.660;2022-07-23T04:21:43;97547.00;;;23.67;44.15
71915;BME280;60387;49.994;14.660;2022-07-23T04:24:17;97562.88;;;23.77;44.92
71915;BME280;60387;49.994;14.660;2022-07-23T04:26:50;97563.28;;;23.79;45.73
71915;BME280;60387;49.994;14.660;2022-07-23T04:29:24;97544.28;;;23.74;45.44
71915;BME280;60387;49.994;14.660;2022-07-23T04:31:57;97559.69;;;23.72;46.74
71915;BME280;60387;49.994;14.660;2022-07-23T04:34:31;97548.63;;;23.65;48.07
71915;BME280;60387;49.994;14.660;2022-07-23T04:37:05;97535.94;;;23.57;47.19
71915;BME280;60387;49.994;14.660;2022-07-23T04:39:38;97546.16;;;23.49;45.90
71915;BME280;60387;49.994;14.660;2022-07-23T04:42:11;97559.22;;;23.49;50.06
71915;BME280;60387;49.994;14.660;2022-07-23T04:44:44;97573.38;;;23.41;49.50
71915;BME280;60387;49.994;14.660;2022-07-23T04:47:18;97576.09;;;23.30;47.89
71915;BME280;60387;49.994;14.660;2022-07-23T04:49:51;97582.00;;;23.25;48.98
71915;BME280;60387;49.994;14.660;2022-07-23T04:52:24;97581.97;;;23.22;49.10
71915;BME280;60387;49.994;14.660;2022-07-23T04:54:57;97582.75;;;23.15;48.92
71915;BME280;60387;49.994;14.660;2022-07-23T04:57:31;97590.25;;;23.18;48.37
71915;BME280;60387;49.994;14.660;2022-07-23T05:00:04;97591.84;;;23.23;48.77
71915;BME280;60387;49.994;14.660;2022-07-23T05:02:38;97578.38;;;23.14;48.51
71915;BME280;60387;49.994;14.660;2022-07-23T05:05:11;97583.97;;;23.28;49.98
71915;BME280;60387;49.994;14.660;2022-07-23T05:07:44;97603.34;;;23.28;48.96
71915;BME280;60387;49.994;14.660;2022-07-23T05:10:18;97596.59;;;23.26;48.05
71915;BME280;60387;49.994;14.660;2022-07-23T05:12:51;97580.81;;;23.26;50.00
71915;BME280;60387;49.994;14.660;2022-07-23T05:15:24;97596.63;;;23.33;48.34
71915;BME280;60387;49.994;14.660;2022-07-23T05:17:57;97594.28;;;23.31;48.45
71915;BME280;60387;49.994;14.660;2022-07-23T05:20:31;97603.75;;;23.34;48.13
71915;BME280;60387;49.994;14.660;2022-07-23T05:23:04;97612.88;;;23.38;47.79
71915;BME280;60387;49.994;14.660;2022-07-23T05:25:37;97605.78;;;23.40;47.39
71915;BME280;60387;49.994;14.660;2022-07-23T05:28:11;97606.16;;;23.39;47.45
71915;BME280;60387;49.994;14.660;2022-07-23T05:30:44;97605.41;;;23.45;47.43
71915;BME280;60387;49.994;14.660;2022-07-23T05:33:20;97593.16;;;23.39;47.36
71915;BME280;60387;49.994;14.660;2022-07-23T05:36:00;97622.41;;;23.44;47.90
71915;BME280;60387;49.994;14.660;2022-07-23T05:38:33;97601.44;;;23.39;47.37
71915;BME280;60387;49.994;14.660;2022-07-23T05:41:07;97614.88;;;23.44;49.59
71915;BME280;60387;49.994;14.660;2022-07-23T05:43:40;97603.81;;;23.44;49.73
71915;BME280;60387;49.994;14.660;2022-07-23T05:46:13;97610.13;;;23.41;48.97
71915;BME280;60387;49.994;14.660;2022-07-23T05:48:46;97601.03;;;23.41;47.77
71915;BME280;60387;49.994;14.660;2022-07-23T05:51:21;97605.41;;;23.45;48.42
71915;BME280;60387;49.994;14.660;2022-07-23T05:53:55;97599.09;;;23.45;48.49
71915;BME280;60387;49.994;14.660;2022-07-23T05:56:28;97597.13;;;23.48;48.18
71915;BME280;60387;49.994;14.660;2022-07-23T05:59:01;97596.75;;;23.50;49.04
71915;BME280;60387;49.994;14.660;2022-07-23T06:01:35;97600.69;;;23.49;48.31
71915;BME280;60387;49.994;14.660;2022-07-23T06:04:08;97605.03;;;23.47;48.13
71915;BME280;60387;49.994;14.660;2022-07-23T06:06:41;97598.69;;;23.49;47.96
71915;BME280;60387;49.994;14.660;2022-07-23T06:09:14;97598.34;;;23.54;48.61
71915;BME280;60387;49.994;14.660;2022-07-23T06:11:48;97612.19;;;23.58;48.62
71915;BME280;60387;49.994;14.660;2022-07-23T06:14:21;97611.00;;;23.59;47.76
71915;BME280;60387;49.994;14.660;2022-07-23T06:16:54;97612.22;;;23.65;47.68
71915;BME280;60387;49.994;14.660;2022-07-23T06:19:27;97609.06;;;23.66;48.34
71915;BME280;60387;49.994;14.660;2022-07-23T06:22:01;97614.59;;;23.70;47.99
71915;BME280;60387;49.994;14.660;2022-07-23T06:24:34;97624.91;;;23.69;49.48
71915;BME280;60387;49.994;14.660;2022-07-23T06:27:07;97625.31;;;23.75;49.67
71915;BME280;60387;49.994;14.660;2022-07-23T06:29:40;97646.66;;;23.78;50.62
71915;BME280;60387;49.994;14.660;2022-07-23T06:32:14;97634.78;;;23.70;50.06
71915;BME280;60387;49.994;14.660;2022-07-23T06:34:47;97648.63;;;23.81;50.55
71915;BME280;60387;49.994;14.660;2022-07-23T06:37:20;97654.63;;;23.90;49.58
71915;BME280;60387;49.994;14.660;2022-07-23T06:39:54;97662.97;;;23.97;50.82
71915;BME280;60387;49.994;14.660;2022-07-23T06:42:27;97651.53;;;24.02;50.34
71915;BME280;60387;49.994;14.660;2022-07-23T06:45:00;97653.16;;;24.13;49.68
71915;BME280;60387;49.994;14.660;2022-07-23T06:47:33;97642.53;;;24.29;51.70
71915;BME280;60387;49.994;14.660;2022-07-23T06:50:07;97643.31;;;24.37;50.97
71915;BME280;60387;49.994;14.660;2022-07-23T06:52:40;97637.81;;;24.44;50.79
71915;BME280;60387;49.994;14.660;2022-07-23T06:55:14;97628.75;;;24.57;50.42
71915;BME280;60387;49.994;14.660;2022-07-23T06:57:47;97613.72;;;24.62;50.06
71915;BME280;60387;49.994;14.660;2022-07-23T07:00:20;97591.53;;;24.55;50.73
71915;BME280;60387;49.994;14.660;2022-07-23T07:02:54;97611.72;;;24.62;50.66
71915;BME280;60387;49.994;14.660;2022-07-23T07:05:27;97629.94;;;24.63;50.90
71915;BME280;60387;49.994;14.660;2022-07-23T07:08:00;97630.34;;;24.62;51.10
71915;BME280;60387;49.994;14.660;2022-07-23T07:10:34;97626.00;;;24.68;50.35
71915;BME280;60387;49.994;14.660;2022-07-23T07:13:07;97623.22;;;24.68;50.08
71915;BME280;60387;49.994;14.660;2022-07-23T07:15:40;97623.63;;;24.77;50.21
71915;BME280;60387;49.994;14.660;2022-07-23T07:18:13;97631.53;;;24.82;49.94
71915;BME280;60387;49.994;14.660;2022-07-23T07:20:48;97630.34;;;24.90;49.18
71915;BME280;60387;49.994;14.660;2022-07-23T07:23:22;97637.06;;;24.99;50.01
71915;BME280;60387;49.994;14.660;2022-07-23T07:25:55;97639.03;;;25.06;49.11
71915;BME280;60387;49.994;14.660;2022-07-23T07:28:28;97640.25;;;25.12;49.17
71915;BME280;60387;49.994;14.660;2022-07-23T07:31:01;97648.13;;;25.17;48.99
71915;BME280;60387;49.994;14.660;2022-07-23T07:33:35;97641.03;;;25.23;49.38
71915;BME280;60387;49.994;14.660;2022-07-23T07:36:08;97641.03;;;25.26;49.14
71915;BME280;60387;49.994;14.660;2022-07-23T07:38:41;97648.53;;;25.33;49.35
71915;BME280;60387;49.994;14.660;2022-07-23T07:41:15;97650.13;;;25.37;49.11
71915;BME280;60387;49.994;14.660;2022-07-23T07:43:48;97653.69;;;25.41;48.93
71915;BME280;60387;49.994;14.660;2022-07-23T07:46:21;97646.16;;;25.42;49.10
71915;BME280;60387;49.994;14.660;2022-07-23T07:48:55;97650.91;;;25.45;49.31
71915;BME280;60387;49.994;14.660;2022-07-23T07:51:28;97653.25;;;25.50;48.68
71915;BME280;60387;49.994;14.660;2022-07-23T07:54:01;97647.31;;;25.51;48.97
71915;BME280;60387;49.994;14.660;2022-07-23T07:56:35;97651.28;;;25.61;48.81
71915;BME280;60387;49.994;14.660;2022-07-23T07:59:08;97653.22;;;25.67;48.81
71915;BME280;60387;49.994;14.660;2022-07-23T08:01:41;97664.31;;;25.71;48.72
71915;BME280;60387;49.994;14.660;2022-07-23T08:04:14;97664.72;;;25.73;48.68
71915;BME280;60387;49.994;14.660;2022-07-23T08:06:48;97657.97;;;25.70;49.94
71915;BME280;60387;49.994;14.660;2022-07-23T08:09:21;97664.72;;;25.62;49.66
71915;BME280;60387;49.994;14.660;2022-07-23T08:11:54;97646.13;;;25.52;50.63
71915;BME280;60387;49.994;14.660;2022-07-23T08:14:27;97653.28;;;25.46;49.72
71915;BME280;60387;49.994;14.660;2022-07-23T08:17:01;97662.41;;;25.43;50.37
71915;BME280;60387;49.994;14.660;2022-07-23T08:19:34;97661.59;;;25.43;49.59
71915;BME280;60387;49.994;14.660;2022-07-23T08:22:07;97651.69;;;25.42;49.46
71915;BME280;60387;49.994;14.660;2022-07-23T08:24:40;97658.81;;;25.53;48.85
71915;BME280;60387;49.994;14.660;2022-07-23T08:27:14;97648.47;;;25.64;49.19
71915;BME280;60387;49.994;14.660;2022-07-23T08:29:47;97656.38;;;25.73;49.04
71915;BME280;60387;49.994;14.660;2022-07-23T08:32:20;97660.34;;;25.75;48.55
71915;BME280;60387;49.994;14.660;2022-07-23T08:34:53;97668.25;;;25.84;47.70
71915;BME280;60387;49.994;14.660;2022-07-23T08:37:27;97672.59;;;25.92;47.95
71915;BME280;60387;49.994;14.660;2022-07-23T08:40:00;97676.13;;;26.03;48.00
71915;BME280;60387;49.994;14.660;2022-07-23T08:42:34;97684.03;;;26.11;47.14
71915;BME280;60387;49.994;14.660;2022-07-23T08:45:08;97686.34;;;26.27;46.97
71915;BME280;60387;49.994;14.660;2022-07-23T08:47:42;97681.13;;;26.36;46.06
71915;BME280;60387;49.994;14.660;2022-07-23T08:50:16;97683.47;;;26.51;45.76
71915;BME280;60387;49.994;14.660;2022-07-23T08:52:51;97689.34;;;26.64;46.28
71915;BME280;60387;49.994;14.660;2022-07-23T08:55:24;97680.50;;;26.79;45.83
71915;BME280;60387;49.994;14.660;2022-07-23T08:57:57;97685.13;;;27.00;45.04
71915;BME280;60387;49.994;14.660;2022-07-23T09:00:31;97682.19;;;27.21;44.07
71915;BME280;60387;49.994;14.660;2022-07-23T09:03:04;97681.94;;;27.48;44.50
71915;BME280;60387;49.994;14.660;2022-07-23T09:05:38;97667.97;;;27.92;43.59
71915;BME280;60387;49.994;14.660;2022-07-23T09:08:19;97678.63;;;28.34;40.64
71915;BME280;60387;49.994;14.660;2022-07-23T09:11:00;97678.13;;;28.69;38.93
71915;BME280;60387;49.994;14.660;2022-07-23T09:13:38;97670.91;;;28.98;40.55
71915;BME280;60387;49.994;14.660;2022-07-23T09:16:25;97674.03;;;29.27;40.43
71915;BME280;60387;49.994;14.660;2022-07-23T09:19:00;97667.09;;;29.61;38.55
71915;BME280;60387;49.994;14.660;2022-07-23T09:21:38;97678.69;;;29.99;39.46
71915;BME280;60387;49.994;14.660;2022-07-23T09:24:13;97668.72;;;30.21;37.18
71915;BME280;60387;49.994;14.660;2022-07-23T09:26:48;97674.13;;;30.47;36.94
71915;BME280;60387;49.994;14.660;2022-07-23T09:29:23;97667.75;;;30.66;36.03
71915;BME280;60387;49.994;14.660;2022-07-23T09:34:35;97675.59;;;31.23;35.93
71915;BME280;60387;49.994;14.660;2022-07-23T09:39:46;97668.50;;;32.23;36.33
71915;BME280;60387;49.994;14.660;2022-07-23T09:42:24;97672.84;;;32.65;34.20
71915;BME280;60387;49.994;14.660;2022-07-23T09:44:58;97670.78;;;32.94;33.33
71915;BME280;60387;49.994;14.660;2022-07-23T09:47:32;97668.94;;;33.12;33.60
71915;BME280;60387;49.994;14.660;2022-07-23T09:50:06;97682.88;;;33.28;33.22
71915;BME280;60387;49.994;14.660;2022-07-23T09:55:17;97683.56;;;33.32;32.59
71915;BME280;60387;49.994;14.660;2022-07-23T09:57:51;97688.63;;;33.25;32.31
71915;BME280;60387;49.994;14.660;2022-07-23T10:00:24;97688.16;;;33.14;32.29
71915;BME280;60387;49.994;14.660;2022-07-23T10:02:58;97677.38;;;33.00;33.22
71915;BME280;60387;49.994;14.660;2022-07-23T10:05:32;97683.69;;;32.91;33.47
71915;BME280;60387;49.994;14.660;2022-07-23T10:08:08;97680.66;;;32.86;33.62
71915;BME280;60387;49.994;14.660;2022-07-23T10:10:46;97684.44;;;32.79;32.91
71915;BME280;60387;49.994;14.660;2022-07-23T10:13:19;97687.09;;;32.70;34.26
71915;BME280;60387;49.994;14.660;2022-07-23T10:15:53;97689.00;;;32.61;33.71
71915;BME280;60387;49.994;14.660;2022-07-23T10:18:30;97691.22;;;32.53;34.10
71915;BME280;60387;49.994;14.660;2022-07-23T10:21:06;97679.97;;;32.41;34.10
71915;BME280;60387;49.994;14.660;2022-07-23T10:23:45;97685.59;;;32.41;33.42
71915;BME280;60387;49.994;14.660;2022-07-23T10:26:43;97689.84;;;32.33;33.78
71915;BME280;60387;49.994;14.660;2022-07-23T10:39:26;97685.44;;;33.23;34.58
71915;BME280;60387;49.994;14.660;2022-07-23T10:41:36;97680.47;;;33.52;33.25
71915;BME280;60387;49.994;14.660;2022-07-23T10:44:14;97685.38;;;33.73;33.49
71915;BME280;60387;49.994;14.660;2022-07-23T10:46:59;97680.38;;;33.89;32.21
71915;BME280;60387;49.994;14.660;2022-07-23T10:49:33;97673.41;;;33.94;33.34
71915;BME280;60387;49.994;14.660;2022-07-23T10:54:55;97673.69;;;34.51;32.75
71915;BME280;60387;49.994;14.660;2022-07-23T10:57:29;97660.69;;;34.75;31.02
71915;BME280;60387;49.994;14.660;2022-07-23T11:02:36;97660.06;;;34.71;30.80
71915;BME280;60387;49.994;14.660;2022-07-23T11:05:14;97650.38;;;34.51;31.48
71915;BME280;60387;49.994;14.660;2022-07-23T11:10:45;97645.13;;;34.62;30.73
71915;BME280;60387;49.994;14.660;2022-07-23T11:32:00;97636.13;;;35.99;28.30
71915;BME280;60387;49.994;14.660;2022-07-23T11:34:45;97640.19;;;35.89;28.27
71915;BME280;60387;49.994;14.660;2022-07-23T11:37:37;97633.78;;;35.89;28.86
71915;BME280;60387;49.994;14.660;2022-07-23T11:40:12;97624.22;;;35.95;28.15
71915;BME280;60387;49.994;14.660;2022-07-23T11:42:58;97628.91;;;35.80;28.75
71915;BME280;60387;49.994;14.660;2022-07-23T11:45:37;97629.22;;;35.73;29.57
71915;BME280;60387;49.994;14.660;2022-07-23T11:50:52;97623.09;;;36.02;28.45
71915;BME280;60387;49.994;14.660;2022-07-23T11:53:31;97639.25;;;36.01;27.43
71915;BME280;60387;49.994;14.660;2022-07-23T11:56:06;97624.22;;;35.77;28.11
71915;BME280;60387;49.994;14.660;2022-07-23T11:58:54;97616.34;;;35.54;28.71
71915;BME280;60387;49.994;14.660;2022-07-23T12:01:27;97616.66;;;35.56;29.04
71915;BME280;60387;49.994;14.660;2022-07-23T12:04:00;97613.25;;;35.70;28.90
71915;BME280;60387;49.994;14.660;2022-07-23T12:06:38;97624.06;;;35.81;28.12
71915;BME280;60387;49.994;14.660;2022-07-23T12:09:11;97622.34;;;35.74;28.18
71915;BME280;60387;49.994;14.660;2022-07-23T12:11:58;97622.47;;;35.62;28.07
71915;BME280;60387;49.994;14.660;2022-07-23T12:46:23;97687.56;;;29.05;40.49
71915;BME280;60387;49.994;14.660;2022-07-23T12:48:56;97676.22;;;28.63;40.63
71915;BME280;60387;49.994;14.660;2022-07-23T12:51:31;97669.56;;;28.23;39.69
71915;BME280;60387;49.994;14.660;2022-07-23T12:54:09;97653.56;;;27.97;43.72
71915;BME280;60387;49.994;14.660;2022-07-23T12:56:45;97662.97;;;27.77;41.73
71915;BME280;60387;49.994;14.660;2022-07-23T12:59:18;97658.84;;;27.51;42.64
71915;BME280;60387;49.994;14.660;2022-07-23T13:01:56;97657.78;;;27.38;43.38
71915;BME280;60387;49.994;14.660;2022-07-23T13:04:29;97657.56;;;27.23;44.38
71915;BME280;60387;49.994;14.660;2022-07-23T13:07:02;97664.41;;;27.08;43.17
71915;BME280;60387;49.994;14.660;2022-07-23T13:09:35;97675.94;;;27.03;42.92
71915;BME280;60387;49.994;14.660;2022-07-23T13:12:09;97679.56;;;27.00;42.24
71915;BME280;60387;49.994;14.660;2022-07-23T13:14:42;97710.13;;;27.03;43.94
71915;BME280;60387;49.994;14.660;2022-07-23T13:17:15;97728.75;;;27.06;44.66
71915;BME280;60387;49.994;14.660;2022-07-23T13:19:48;97740.72;;;27.03;44.50
71915;BME280;60387;49.994;14.660;2022-07-23T13:22:22;97743.53;;;26.96;43.44
71915;BME280;60387;49.994;14.660;2022-07-23T13:24:55;97742.81;;;26.89;43.91
71915;BME280;60387;49.994;14.660;2022-07-23T13:27:28;97738.41;;;26.88;45.97
71915;BME280;60387;49.994;14.660;2022-07-23T13:30:02;97738.03;;;26.86;48.03
71915;BME280;60387;49.994;14.660;2022-07-23T13:32:36;97723.44;;;26.75;47.18
71915;BME280;60387;49.994;14.660;2022-07-23T13:35:09;97728.63;;;26.66;45.67
71915;BME280;60387;49.994;14.660;2022-07-23T13:37:43;97714.75;;;26.66;45.63
71915;BME280;60387;49.994;14.660;2022-07-23T13:40:16;97700.41;;;26.71;45.81
71915;BME280;60387;49.994;14.660;2022-07-23T13:42:49;97705.16;;;26.74;46.15
71915;BME280;60387;49.994;14.660;2022-07-23T13:45:23;97700.34;;;26.81;47.67
71915;BME280;60387;49.994;14.660;2022-07-23T13:47:56;97688.81;;;26.83;47.27
71915;BME280;60387;49.994;14.660;2022-07-23T13:50:30;97678.75;;;26.99;46.17
71915;BME280;60387;49.994;14.660;2022-07-23T13:53:09;97680.88;;;27.35;49.70
71915;BME280;60387;49.994;14.660;2022-07-23T13:55:43;97687.66;;;27.71;47.40
71915;BME280;60387;49.994;14.660;2022-07-23T13:58:17;97682.16;;;28.05;47.07
71915;BME280;60387;49.994;14.660;2022-07-23T14:00:52;97687.03;;;28.27;46.33
71915;BME280;60387;49.994;14.660;2022-07-23T14:03:26;97700.06;;;28.37;45.80
71915;BME280;60387;49.994;14.660;2022-07-23T14:05:59;97713.97;;;28.41;46.07
71915;BME280;60387;49.994;14.660;2022-07-23T14:08:32;97711.53;;;28.43;45.67
71915;BME280;60387;49.994;14.660;2022-07-23T14:11:06;97705.75;;;28.60;45.82
71915;BME280;60387;49.994;14.660;2022-07-23T14:13:39;97710.94;;;28.85;46.77
71915;BME280;60387;49.994;14.660;2022-07-23T14:16:12;97713.13;;;29.00;47.08
71915;BME280;60387;49.994;14.660;2022-07-23T14:18:46;97706.47;;;29.17;45.96
71915;BME280;60387;49.994;14.660;2022-07-23T14:21:19;97703.94;;;29.26;46.53
71915;BME280;60387;49.994;14.660;2022-07-23T14:23:52;97702.25;;;29.32;45.28
71915;BME280;60387;49.994;14.660;2022-07-23T14:26:26;97696.06;;;29.44;45.87
71915;BME280;60387;49.994;14.660;2022-07-23T14:28:59;97700.25;;;29.56;46.43
71915;BME280;60387;49.994;14.660;2022-07-23T14:31:32;97700.19;;;29.59;46.15
71915;BME280;60387;49.994;14.660;2022-07-23T14:34:06;97710.91;;;29.64;46.15
71915;BME280;60387;49.994;14.660;2022-07-23T14:36:39;97710.53;;;29.62;45.89
71915;BME280;60387;49.994;14.660;2022-07-23T14:39:13;97707.44;;;29.57;47.11
71915;BME280;60387;49.994;14.660;2022-07-23T14:41:46;97713.94;;;29.50;46.24
71915;BME280;60387;49.994;14.660;2022-07-23T14:44:19;97704.81;;;29.46;46.80